sensor_id;sensor_type;location;lat;lon;timestamp;P1;durP1;ratioP1;P2;durP2;ratioP2
16967;SDS011;64862;54.398;10.126;2023-07-13T00:05:01;8.65;;;1.85;;
16967;SDS011;64862;54.398;10.126;2023-07-13T00:15:06;11.88;;;2.10;;
16967;SDS011;64862;54.398;10.126;2023-07-13T00:25:12;7.30;;;1.80;;
16967;SDS011;64862;54.398;10.126;2023-07-13T00:35:16;7.15;;;1.83;;
16967;SDS011;64862;54.398;10.126;2023-07-13T00:56:01;7.47;;;2.20;;
16967;SDS011;64862;54.398;10.126;2023-07-13T01:06:05;10.25;;;2.40;;
16967;SDS011;64862;54.398;10.126;2023-07-13T01:16:13;10.90;;;2.72;;
16967;SDS011;64862;54.398;10.126;2023-07-13T01:26:22;8.90;;;2.63;;
16967;SDS011;64862;54.398;10.126;2023-07-13T01:36:24;12.20;;;2.92;;
16967;SDS011;64862;54.398;10.126;2023-07-13T01:46:27;7.68;;;2.88;;
16967;SDS011;64862;54.398;10.126;2023-07-13T01:56:30;8.50;;;2.80;;
16967;SDS011;64862;54.398;10.126;2023-07-13T02:06:33;9.30;;;2.63;;
16967;SDS011;64862;54.398;10.126;2023-07-13T02:16:35;6.50;;;2.17;;
16967;SDS011;64862;54.398;10.126;2023-07-13T02:26:39;9.95;;;2.80;;
16967;SDS011;64862;54.398;10.126;2023-07-13T02:36:41;6.25;;;2.20;;
16967;SDS011;64862;54.398;10.126;2023-07-13T02:46:45;7.95;;;2.05;;
16967;SDS011;64862;54.398;10.126;2023-07-13T02:56:47;6.63;;;2.10;;
16967;SDS011;64862;54.398;10.126;2023-07-13T03:06:52;7.93;;;2.22;;
16967;SDS011;64862;54.398;10.126;2023-07-13T03:17:02;7.53;;;2.75;;
16967;SDS011;64862;54.398;10.126;2023-07-13T03:27:09;8.60;;;3.40;;
16967;SDS011;64862;54.398;10.126;2023-07-13T03:37:15;6.63;;;3.40;;
16967;SDS011;64862;54.398;10.126;2023-07-13T03:47:19;7.55;;;3.28;;
16967;SDS011;64862;54.398;10.126;2023-07-13T03:57:21;8.27;;;3.50;;
16967;SDS011;64862;54.398;10.126;2023-07-13T04:07:25;7.95;;;3.75;;
16967;SDS011;64862;54.398;10.126;2023-07-13T04:17:27;10.00;;;3.78;;
16967;SDS011;64862;54.398;10.126;2023-07-13T04:27:31;11.32;;;4.07;;
16967;SDS011;64862;54.398;10.126;2023-07-13T04:37:33;9.18;;;3.80;;
16967;SDS011;64862;54.398;10.126;2023-07-13T04:47:37;9.10;;;3.58;;
16967;SDS011;64862;54.398;10.126;2023-07-13T04:57:39;7.82;;;3.33;;
16967;SDS011;64862;54.398;10.126;2023-07-13T05:07:43;10.70;;;3.20;;
16967;SDS011;64862;54.398;10.126;2023-07-13T05:17:45;9.15;;;3.15;;
16967;SDS011;64862;54.398;10.126;2023-07-13T05:27:48;9.50;;;2.80;;
16967;SDS011;64862;54.398;10.126;2023-07-13T05:37:50;9.73;;;2.92;;
16967;SDS011;64862;54.398;10.126;2023-07-13T05:47:54;9.65;;;3.47;;
16967;SDS011;64862;54.398;10.126;2023-07-13T05:57:56;7.63;;;2.78;;
16967;SDS011;64862;54.398;10.126;2023-07-13T06:08:00;10.70;;;2.65;;
16967;SDS011;64862;54.398;10.126;2023-07-13T06:18:02;13.75;;;2.85;;
16967;SDS011;64862;54.398;10.126;2023-07-13T06:28:05;10.55;;;2.85;;
16967;SDS011;64862;54.398;10.126;2023-07-13T06:38:08;11.65;;;3.10;;
16967;SDS011;64862;54.398;10.126;2023-07-13T06:48:11;13.00;;;3.40;;
16967;SDS011;64862;54.398;10.126;2023-07-13T06:58:14;11.35;;;3.17;;
16967;SDS011;64862;54.398;10.126;2023-07-13T07:08:19;11.07;;;3.20;;
16967;SDS011;64862;54.398;10.126;2023-07-13T07:18:21;14.38;;;2.97;;
16967;SDS011;64862;54.398;10.126;2023-07-13T07:28:25;12.82;;;3.25;;
16967;SDS011;64862;54.398;10.126;2023-07-13T07:38:28;14.32;;;3.00;;
16967;SDS011;64862;54.398;10.126;2023-07-13T07:48:32;12.95;;;2.60;;
16967;SDS011;64862;54.398;10.126;2023-07-13T07:58:34;11.60;;;2.72;;
16967;SDS011;64862;54.398;10.126;2023-07-13T08:08:37;10.10;;;2.88;;
16967;SDS011;64862;54.398;10.126;2023-07-13T08:18:39;11.43;;;2.40;;
16967;SDS011;64862;54.398;10.126;2023-07-13T08:28:43;9.05;;;2.45;;
16967;SDS011;64862;54.398;10.126;2023-07-13T08:38:45;3.80;;;1.70;;
16967;SDS011;64862;54.398;10.126;2023-07-13T08:48:50;6.32;;;1.70;;
16967;SDS011;64862;54.398;10.126;2023-07-13T09:08:59;8.73;;;2.20;;
16967;SDS011;64862;54.398;10.126;2023-07-13T09:19:08;5.70;;;1.50;;
16967;SDS011;64862;54.398;10.126;2023-07-13T09:29:19;3.20;;;1.40;;
16967;SDS011;64862;54.398;10.126;2023-07-13T09:39:29;10.07;;;2.13;;
16967;SDS011;64862;54.398;10.126;2023-07-13T09:49:36;7.93;;;2.50;;
16967;SDS011;64862;54.398;10.126;2023-07-13T09:59:39;7.65;;;2.25;;
16967;SDS011;64862;54.398;10.126;2023-07-13T10:09:46;4.47;;;1.70;;
16967;SDS011;64862;54.398;10.126;2023-07-13T10:19:49;6.90;;;1.85;;
16967;SDS011;64862;54.398;10.126;2023-07-13T10:29:53;6.43;;;1.50;;
16967;SDS011;64862;54.398;10.126;2023-07-13T10:40:01;8.00;;;1.73;;
16967;SDS011;64862;54.398;10.126;2023-07-13T10:50:08;4.35;;;1.00;;
16967;SDS011;64862;54.398;10.126;2023-07-13T11:00:17;5.00;;;0.98;;
16967;SDS011;64862;54.398;10.126;2023-07-13T11:31:17;5.90;;;1.13;;
16967;SDS011;64862;54.398;10.126;2023-07-13T11:41:25;4.60;;;0.80;;
16967;SDS011;64862;54.398;10.126;2023-07-13T11:51:33;6.70;;;1.10;;
16967;SDS011;64862;54.398;10.126;2023-07-13T12:01:40;4.95;;;0.93;;
16967;SDS011;64862;54.398;10.126;2023-07-13T12:11:47;3.35;;;0.73;;
16967;SDS011;64862;54.398;10.126;2023-07-13T12:21:50;5.65;;;0.90;;
16967;SDS011;64862;54.398;10.126;2023-07-13T12:32:00;4.80;;;0.73;;
16967;SDS011;64862;54.398;10.126;2023-07-13T12:42:16;5.85;;;0.82;;
16967;SDS011;64862;54.398;10.126;2023-07-13T12:52:27;3.38;;;0.73;;
16967;SDS011;64862;54.398;10.126;2023-07-13T13:02:33;7.68;;;1.00;;
16967;SDS011;64862;54.398;10.126;2023-07-13T13:12:37;4.20;;;0.80;;
16967;SDS011;64862;54.398;10.126;2023-07-13T13:22:42;4.13;;;0.80;;
16967;SDS011;64862;54.398;10.126;2023-07-13T13:32:47;6.22;;;0.93;;
16967;SDS011;64862;54.398;10.126;2023-07-13T13:42:49;7.20;;;1.10;;
16967;SDS011;64862;54.398;10.126;2023-07-13T13:52:57;7.53;;;1.10;;
16967;SDS011;64862;54.398;10.126;2023-07-13T14:02:59;6.82;;;1.00;;
16967;SDS011;64862;54.398;10.126;2023-07-13T14:13:03;8.35;;;1.13;;
16967;SDS011;64862;54.398;10.126;2023-07-13T14:23:08;4.78;;;1.13;;
16967;SDS011;64862;54.398;10.126;2023-07-13T14:33:12;6.28;;;1.17;;
16967;SDS011;64862;54.398;10.126;2023-07-13T14:43:15;8.93;;;1.50;;
16967;SDS011;64862;54.398;10.126;2023-07-13T14:53:19;7.32;;;1.10;;
16967;SDS011;64862;54.398;10.126;2023-07-13T15:03:23;9.35;;;1.40;;
16967;SDS011;64862;54.398;10.126;2023-07-13T15:13:28;5.18;;;0.95;;
16967;SDS011;64862;54.398;10.126;2023-07-13T15:23:30;8.07;;;1.02;;
16967;SDS011;64862;54.398;10.126;2023-07-13T15:33:34;9.48;;;1.23;;
16967;SDS011;64862;54.398;10.126;2023-07-13T15:43:37;10.18;;;1.15;;
16967;SDS011;64862;54.398;10.126;2023-07-13T15:53:41;6.10;;;1.20;;
16967;SDS011;64862;54.398;10.126;2023-07-13T16:03:44;5.03;;;0.98;;
16967;SDS011;64862;54.398;10.126;2023-07-13T16:13:48;9.13;;;1.08;;
16967;SDS011;64862;54.398;10.126;2023-07-13T16:23:55;7.53;;;1.15;;
16967;SDS011;64862;54.398;10.126;2023-07-13T16:33:59;6.05;;;1.15;;
16967;SDS011;64862;54.398;10.126;2023-07-13T16:44:04;7.97;;;1.50;;
16967;SDS011;64862;54.398;10.126;2023-07-13T16:54:13;7.18;;;1.60;;
16967;SDS011;64862;54.398;10.126;2023-07-13T17:14:24;5.50;;;1.05;;
16967;SDS011;64862;54.398;10.126;2023-07-13T17:24:30;4.15;;;0.85;;
16967;SDS011;64862;54.398;10.126;2023-07-13T17:34:37;7.00;;;1.25;;
16967;SDS011;64862;54.398;10.126;2023-07-13T17:44:45;5.50;;;1.33;;
16967;SDS011;64862;54.398;10.126;2023-07-13T17:54:48;6.63;;;1.70;;
16967;SDS011;64862;54.398;10.126;2023-07-13T18:04:51;7.95;;;1.70;;
16967;SDS011;64862;54.398;10.126;2023-07-13T18:14:54;8.60;;;1.50;;
16967;SDS011;64862;54.398;10.126;2023-07-13T18:24:56;9.00;;;1.60;;
16967;SDS011;64862;54.398;10.126;2023-07-13T18:35:00;9.20;;;1.98;;
16967;SDS011;64862;54.398;10.126;2023-07-13T18:45:03;6.75;;;1.45;;
16967;SDS011;64862;54.398;10.126;2023-07-13T18:55:13;9.48;;;2.00;;
16967;SDS011;64862;54.398;10.126;2023-07-13T19:05:21;8.43;;;1.70;;
16967;SDS011;64862;54.398;10.126;2023-07-13T19:15:27;9.10;;;1.90;;
16967;SDS011;64862;54.398;10.126;2023-07-13T19:25:31;8.53;;;2.23;;
16967;SDS011;64862;54.398;10.126;2023-07-13T19:35:36;9.95;;;1.80;;
16967;SDS011;64862;54.398;10.126;2023-07-13T19:45:39;8.00;;;2.08;;
16967;SDS011;64862;54.398;10.126;2023-07-13T19:55:42;10.30;;;2.10;;
16967;SDS011;64862;54.398;10.126;2023-07-13T20:05:44;9.77;;;2.17;;
16967;SDS011;64862;54.398;10.126;2023-07-13T20:15:48;12.02;;;2.13;;
16967;SDS011;64862;54.398;10.126;2023-07-13T20:25:51;12.88;;;2.35;;
16967;SDS011;64862;54.398;10.126;2023-07-13T20:35:56;11.73;;;2.35;;
16967;SDS011;64862;54.398;10.126;2023-07-13T20:46:04;7.88;;;2.40;;
16967;SDS011;64862;54.398;10.126;2023-07-13T20:56:16;10.85;;;2.60;;
16967;SDS011;64862;54.398;10.126;2023-07-13T21:06:19;7.53;;;2.40;;
16967;SDS011;64862;54.398;10.126;2023-07-13T21:16:28;9.48;;;2.47;;
16967;SDS011;64862;54.398;10.126;2023-07-13T21:26:30;14.95;;;2.92;;
16967;SDS011;64862;54.398;10.126;2023-07-13T21:36:35;12.18;;;2.70;;
16967;SDS011;64862;54.398;10.126;2023-07-13T21:46:37;10.55;;;2.63;;
16967;SDS011;64862;54.398;10.126;2023-07-13T21:56:40;9.30;;;2.63;;
16967;SDS011;64862;54.398;10.126;2023-07-13T22:06:43;11.00;;;2.70;;
16967;SDS011;64862;54.398;10.126;2023-07-13T22:16:46;10.60;;;2.47;;
16967;SDS011;64862;54.398;10.126;2023-07-13T22:26:48;11.10;;;2.72;;
16967;SDS011;64862;54.398;10.126;2023-07-13T22:36:53;10.10;;;2.92;;
16967;SDS011;64862;54.398;10.126;2023-07-13T22:46:56;11.27;;;3.25;;
16967;SDS011;64862;54.398;10.126;2023-07-13T22:57:00;8.65;;;3.00;;
16967;SDS011;64862;54.398;10.126;2023-07-13T23:07:03;12.43;;;3.13;;
16967;SDS011;64862;54.398;10.126;2023-07-13T23:17:10;12.20;;;2.95;;
16967;SDS011;64862;54.398;10.126;2023-07-13T23:27:13;9.60;;;3.37;;
16967;SDS011;64862;54.398;10.126;2023-07-13T23:37:16;9.52;;;3.10;;
16967;SDS011;64862;54.398;10.126;2023-07-13T23:47:19;12.05;;;3.15;;
16967;SDS011;64862;54.398;10.126;2023-07-13T23:57:22;10.13;;;3.08;;
